createdAt,value
2018-11-26T00:01:33.365Z,97.61
2018-11-26T00:03:59.702Z,97.38
2018-11-26T00:06:26.022Z,97.11
2018-11-26T00:08:52.443Z,97.01
2018-11-26T00:11:18.772Z,96.95
2018-11-26T00:13:45.203Z,96.82
2018-11-26T00:16:11.569Z,96.80
2018-11-26T00:18:38.003Z,96.74
2018-11-26T00:21:04.390Z,96.86
2018-11-26T00:23:30.704Z,96.92
2018-11-26T00:25:57.072Z,97.05
2018-11-26T00:28:23.448Z,97.01
2018-11-26T00:30:49.745Z,96.97
2018-11-26T00:33:16.080Z,96.92
2018-11-26T00:35:42.401Z,97.02
2018-11-26T00:38:08.708Z,96.95
2018-11-26T00:40:35.057Z,96.95
2018-11-26T00:43:01.359Z,97.13
2018-11-26T00:45:27.704Z,97.29
2018-11-26T00:47:54.040Z,97.13
2018-11-26T00:50:20.347Z,97.36
2018-11-26T00:52:46.687Z,97.42
2018-11-26T00:55:13.096Z,97.45
2018-11-26T00:57:39.407Z,97.60
2018-11-26T01:00:07.236Z,97.94
2018-11-26T01:02:33.556Z,98.13
2018-11-26T01:04:59.919Z,98.16
2018-11-26T01:07:26.254Z,98.45
2018-11-26T01:09:52.538Z,98.70
2018-11-26T01:12:18.855Z,98.72
2018-11-26T01:14:45.154Z,98.67
2018-11-26T01:17:11.501Z,98.72
2018-11-26T01:19:37.832Z,98.83
2018-11-26T01:22:04.163Z,98.92
2018-11-26T01:24:30.494Z,98.80
2018-11-26T01:26:56.822Z,99.41
2018-11-26T01:29:23.168Z,100.00
2018-11-26T01:31:49.468Z,100.00
2018-11-26T01:34:15.784Z,100.00
2018-11-26T01:36:42.128Z,100.00
2018-11-26T01:39:08.510Z,100.00
2018-11-26T01:41:34.823Z,100.00
2018-11-26T01:44:01.138Z,100.00
2018-11-26T01:46:27.468Z,100.00
2018-11-26T01:48:53.803Z,100.00
2018-11-26T01:51:20.162Z,100.00
2018-11-26T01:53:46.469Z,100.00
2018-11-26T01:56:12.774Z,100.00
2018-11-26T01:58:39.134Z,100.00
2018-11-26T02:01:05.439Z,100.00
2018-11-26T02:03:31.726Z,100.00
2018-11-26T02:05:58.041Z,100.00
2018-11-26T02:08:24.336Z,100.00
2018-11-26T02:10:50.681Z,100.00
2018-11-26T02:13:16.978Z,100.00
2018-11-26T02:15:43.292Z,100.00
2018-11-26T02:18:09.600Z,100.00
2018-11-26T02:20:35.922Z,100.00
2018-11-26T02:23:02.276Z,99.88
2018-11-26T02:25:28.586Z,99.52
2018-11-26T02:27:54.925Z,99.34
2018-11-26T02:30:21.275Z,99.01
2018-11-26T02:32:47.605Z,99.18
2018-11-26T02:35:13.963Z,99.46
2018-11-26T02:37:40.284Z,99.35
2018-11-26T02:40:06.622Z,99.58
2018-11-26T02:42:32.925Z,99.81
2018-11-26T02:44:59.302Z,99.71
2018-11-26T02:47:25.595Z,99.89
2018-11-26T02:49:51.896Z,100.00
2018-11-26T02:52:18.200Z,100.00
2018-11-26T02:54:44.522Z,100.00
2018-11-26T02:57:10.842Z,99.96
2018-11-26T02:59:37.213Z,100.00
2018-11-26T03:02:03.512Z,99.90
2018-11-26T03:04:29.810Z,99.17
2018-11-26T03:06:56.172Z,99.07
2018-11-26T03:09:22.494Z,98.84
2018-11-26T03:11:48.805Z,98.75
2018-11-26T03:14:15.115Z,98.64
2018-11-26T03:16:41.409Z,98.41
2018-11-26T03:19:07.734Z,98.35
2018-11-26T03:21:34.044Z,98.48
2018-11-26T03:24:00.372Z,98.61
2018-11-26T03:26:26.707Z,98.63
2018-11-26T03:28:53.016Z,98.59
2018-11-26T03:31:19.294Z,98.60
2018-11-26T03:33:45.589Z,98.64
2018-11-26T03:36:11.953Z,98.68
2018-11-26T03:38:38.327Z,98.69
2018-11-26T03:41:04.572Z,98.25
2018-11-26T03:43:30.948Z,98.13
2018-11-26T03:45:57.281Z,97.82
2018-11-26T03:48:23.595Z,97.95
2018-11-26T03:50:49.925Z,98.11
2018-11-26T03:53:16.260Z,98.26
2018-11-26T03:55:42.547Z,98.22
2018-11-26T03:58:08.873Z,98.39
2018-11-26T04:00:35.233Z,98.51
2018-11-26T04:03:01.502Z,98.66
2018-11-26T04:05:27.789Z,98.76
2018-11-26T04:07:54.132Z,98.87
2018-11-26T04:10:20.428Z,99.02
2018-11-26T04:12:46.712Z,98.99
2018-11-26T04:15:13.079Z,99.07
2018-11-26T04:17:39.464Z,99.14
2018-11-26T04:20:05.785Z,98.99
2018-11-26T04:22:32.093Z,98.81
2018-11-26T04:24:58.486Z,98.73
2018-11-26T04:27:24.781Z,98.72
2018-11-26T04:29:51.120Z,98.96
2018-11-26T04:32:17.439Z,98.95
2018-11-26T04:34:43.738Z,98.94
2018-11-26T04:37:10.024Z,98.91
2018-11-26T04:39:36.411Z,98.83
2018-11-26T04:42:02.705Z,98.83
2018-11-26T04:44:29.121Z,98.94
2018-11-26T04:46:55.384Z,99.04
2018-11-26T04:49:21.697Z,99.28
2018-11-26T04:51:48.023Z,99.40
2018-11-26T04:54:14.366Z,99.50
2018-11-26T04:56:40.665Z,99.60
2018-11-26T04:59:06.953Z,99.62
2018-11-26T05:01:33.234Z,99.54
2018-11-26T05:03:59.567Z,99.51
2018-11-26T05:06:25.895Z,99.59
2018-11-26T05:08:52.218Z,99.36
2018-11-26T05:11:18.559Z,99.25
2018-11-26T05:13:44.868Z,99.09
2018-11-26T05:16:11.207Z,99.04
2018-11-26T05:18:37.619Z,98.97
2018-11-26T05:21:03.922Z,98.94
2018-11-26T05:23:30.228Z,98.96
2018-11-26T05:25:56.569Z,98.99
2018-11-26T05:28:22.853Z,98.98
2018-11-26T05:30:49.184Z,98.94
2018-11-26T05:33:15.458Z,98.99
2018-11-26T05:35:41.788Z,98.93
2018-11-26T05:38:08.072Z,99.01
2018-11-26T05:40:34.381Z,99.04
2018-11-26T05:43:00.719Z,98.88
2018-11-26T05:45:27.003Z,98.83
2018-11-26T05:47:53.351Z,98.90
2018-11-26T05:50:19.675Z,98.87
2018-11-26T05:52:46.004Z,98.60
2018-11-26T05:55:12.329Z,98.64
2018-11-26T05:57:38.662Z,98.26
2018-11-26T06:00:06.732Z,98.06
2018-11-26T06:02:33.016Z,97.99
2018-11-26T06:04:59.311Z,97.70
2018-11-26T06:07:25.632Z,97.65
2018-11-26T06:09:51.950Z,97.49
2018-11-26T06:12:18.258Z,97.48
2018-11-26T06:14:44.615Z,97.32
2018-11-26T06:17:10.922Z,97.45
2018-11-26T06:19:37.232Z,97.46
2018-11-26T06:22:03.600Z,97.63
2018-11-26T06:24:29.926Z,97.76
2018-11-26T06:26:56.253Z,97.21
2018-11-26T06:29:22.708Z,96.76
2018-11-26T06:31:48.989Z,96.60
2018-11-26T06:34:15.350Z,96.87
2018-11-26T06:36:41.684Z,96.88
2018-11-26T06:39:08.074Z,97.20
2018-11-26T06:41:34.364Z,97.24
2018-11-26T06:44:00.691Z,97.12
2018-11-26T06:46:27.011Z,97.11
2018-11-26T06:48:53.319Z,96.92
2018-11-26T06:51:19.620Z,96.77
2018-11-26T06:53:45.930Z,96.79
2018-11-26T06:56:12.221Z,96.69
2018-11-26T06:58:38.585Z,96.36
2018-11-26T07:01:04.885Z,96.03
2018-11-26T07:03:31.235Z,95.63
2018-11-26T07:05:57.522Z,95.64
2018-11-26T07:08:23.818Z,95.21
2018-11-26T07:10:50.102Z,95.20
2018-11-26T07:13:16.405Z,95.32
2018-11-26T07:15:42.749Z,95.27
2018-11-26T07:18:09.035Z,95.44
2018-11-26T07:20:35.369Z,95.21
2018-11-26T07:23:01.650Z,95.02
2018-11-26T07:25:27.943Z,94.83
2018-11-26T07:27:54.265Z,94.06
2018-11-26T07:30:20.558Z,93.98
2018-11-26T07:32:46.860Z,93.90
2018-11-26T07:35:13.246Z,93.73
2018-11-26T07:37:39.539Z,93.83
2018-11-26T07:40:05.850Z,94.08
2018-11-26T07:42:32.171Z,93.54
2018-11-26T07:44:58.459Z,93.59
2018-11-26T07:47:24.811Z,93.75
2018-11-26T07:49:51.148Z,93.73
2018-11-26T07:52:17.481Z,93.44
2018-11-26T07:54:43.764Z,93.15
2018-11-26T07:57:10.110Z,93.10
2018-11-26T07:59:36.435Z,93.38
2018-11-26T08:02:02.740Z,93.33
2018-11-26T08:04:29.044Z,93.62
2018-11-26T08:06:55.346Z,93.64
2018-11-26T08:09:21.701Z,93.69
2018-11-26T08:11:47.984Z,93.93
2018-11-26T08:14:14.306Z,94.13
2018-11-26T08:16:40.671Z,93.78
2018-11-26T08:19:07.022Z,93.67
2018-11-26T08:21:33.345Z,93.77
2018-11-26T08:23:59.657Z,93.89
2018-11-26T08:26:25.947Z,94.10
2018-11-26T08:28:52.243Z,93.86
2018-11-26T08:31:18.560Z,93.73
2018-11-26T08:33:44.853Z,93.54
2018-11-26T08:36:11.160Z,93.67
2018-11-26T08:38:37.467Z,93.31
2018-11-26T08:41:03.754Z,93.09
2018-11-26T08:43:30.058Z,93.05
2018-11-26T08:45:56.383Z,92.54
2018-11-26T08:48:22.709Z,92.67
2018-11-26T08:50:49.016Z,93.00
2018-11-26T08:53:15.285Z,93.10
2018-11-26T08:55:41.592Z,92.81
2018-11-26T08:58:07.897Z,92.87
2018-11-26T09:00:34.196Z,93.27
2018-11-26T09:03:00.501Z,93.37
2018-11-26T09:05:26.820Z,93.05
2018-11-26T09:07:53.124Z,93.38
2018-11-26T09:10:19.445Z,93.23
2018-11-26T09:12:45.753Z,93.17
2018-11-26T09:15:12.085Z,93.24
2018-11-26T09:17:38.401Z,92.90
2018-11-26T09:20:04.692Z,92.37
2018-11-26T09:22:31.007Z,92.45
2018-11-26T09:24:57.317Z,92.13
2018-11-26T09:27:23.621Z,92.26
2018-11-26T09:29:49.910Z,92.40
2018-11-26T09:32:16.210Z,92.36
2018-11-26T09:34:42.543Z,92.43
2018-11-26T09:37:08.879Z,92.46
2018-11-26T09:39:35.189Z,92.33
2018-11-26T09:42:01.507Z,92.14
2018-11-26T09:44:27.811Z,92.47
2018-11-26T09:46:54.133Z,92.14
2018-11-26T09:49:20.433Z,92.25
2018-11-26T09:51:46.779Z,91.62
2018-11-26T09:54:13.074Z,92.17
2018-11-26T09:56:39.416Z,92.24
2018-11-26T09:59:05.758Z,92.06
2018-11-26T10:01:32.146Z,92.00
2018-11-26T10:03:58.454Z,91.39
2018-11-26T10:06:24.776Z,91.32
2018-11-26T10:08:51.088Z,91.39
2018-11-26T10:11:17.392Z,90.92
2018-11-26T10:13:43.709Z,90.86
2018-11-26T10:16:09.980Z,90.52
2018-11-26T10:18:36.307Z,89.92
2018-11-26T10:21:02.614Z,89.50
2018-11-26T10:23:28.917Z,89.43
2018-11-26T10:25:55.242Z,89.07
2018-11-26T10:28:21.544Z,88.82
2018-11-26T10:30:47.847Z,88.08
2018-11-26T10:33:14.891Z,88.00
2018-11-26T10:35:40.477Z,88.22
2018-11-26T10:38:06.767Z,87.80
2018-11-26T10:40:33.075Z,86.75
2018-11-26T10:42:59.380Z,87.02
2018-11-26T10:45:25.669Z,86.78
2018-11-26T10:47:51.985Z,85.08
2018-11-26T10:50:18.292Z,81.55
2018-11-26T10:52:44.619Z,79.79
2018-11-26T10:55:10.944Z,80.80
2018-11-26T10:57:37.264Z,81.59
2018-11-26T11:00:07.432Z,78.75
2018-11-26T11:02:33.722Z,75.04
2018-11-26T11:05:00.022Z,75.43
2018-11-26T11:07:26.350Z,76.22
2018-11-26T11:09:52.640Z,78.28
2018-11-26T11:12:18.979Z,78.50
2018-11-26T11:14:45.313Z,78.16
2018-11-26T11:17:11.598Z,77.81
2018-11-26T11:19:37.920Z,77.21
2018-11-26T11:22:04.229Z,75.90
2018-11-26T11:24:30.542Z,77.53
2018-11-26T11:26:56.874Z,77.83
2018-11-26T11:29:23.188Z,78.59
2018-11-26T11:31:49.519Z,79.79
2018-11-26T11:34:15.806Z,79.84
2018-11-26T11:36:42.137Z,79.75
2018-11-26T11:39:08.426Z,80.07
2018-11-26T11:41:34.846Z,80.72
2018-11-26T11:44:01.084Z,80.42
2018-11-26T11:46:27.400Z,79.33
2018-11-26T11:48:53.690Z,79.03
2018-11-26T11:51:20.015Z,79.19
2018-11-26T11:53:46.345Z,75.82
2018-11-26T11:56:12.665Z,75.48
2018-11-26T11:58:38.988Z,76.90
2018-11-26T12:01:05.294Z,78.54
2018-11-26T12:03:31.604Z,79.50
2018-11-26T12:05:57.893Z,79.93
2018-11-26T12:08:24.231Z,80.24
2018-11-26T12:10:50.590Z,79.92
2018-11-26T12:13:16.923Z,80.28
2018-11-26T12:15:43.283Z,80.25
2018-11-26T12:18:09.577Z,80.59
2018-11-26T12:20:35.877Z,80.84
2018-11-26T12:23:02.214Z,81.35
2018-11-26T12:25:28.529Z,81.65
2018-11-26T12:27:54.865Z,81.95
2018-11-26T12:30:21.191Z,82.13
2018-11-26T12:32:47.516Z,82.13
2018-11-26T12:35:13.866Z,81.53
2018-11-26T12:37:40.176Z,79.82
2018-11-26T12:40:06.533Z,78.13
2018-11-26T12:42:32.867Z,77.22
2018-11-26T12:44:59.169Z,76.25
2018-11-26T12:47:25.478Z,77.44
2018-11-26T12:49:51.769Z,77.35
2018-11-26T12:52:18.081Z,77.51
2018-11-26T12:54:44.409Z,78.37
2018-11-26T12:57:10.733Z,79.36
2018-11-26T12:59:37.099Z,79.82
2018-11-26T13:02:03.459Z,80.18
2018-11-26T13:04:29.772Z,80.26
2018-11-26T13:06:56.148Z,80.03
2018-11-26T13:09:22.462Z,80.06
2018-11-26T13:11:48.776Z,80.38
2018-11-26T13:14:15.112Z,80.39
2018-11-26T13:16:41.407Z,80.30
2018-11-26T13:19:07.728Z,80.27
2018-11-26T13:21:34.038Z,80.27
2018-11-26T13:24:00.344Z,80.37
2018-11-26T13:26:26.651Z,80.54
2018-11-26T13:28:52.982Z,80.51
2018-11-26T13:31:19.282Z,80.46
2018-11-26T13:33:45.645Z,80.54
2018-11-26T13:36:11.986Z,80.50
2018-11-26T13:38:38.311Z,80.79
2018-11-26T13:41:04.623Z,80.91
2018-11-26T13:43:30.960Z,80.69
2018-11-26T13:45:57.264Z,80.58
2018-11-26T13:48:23.609Z,80.74
2018-11-26T13:50:49.927Z,81.00
2018-11-26T13:53:16.232Z,81.03
2018-11-26T13:55:42.579Z,81.14
2018-11-26T13:58:08.896Z,81.33
2018-11-26T14:00:35.228Z,81.44
2018-11-26T14:03:01.537Z,81.56
2018-11-26T14:05:27.821Z,81.30
2018-11-26T14:07:54.136Z,81.56
2018-11-26T14:10:20.447Z,81.34
2018-11-26T14:12:46.756Z,81.38
2018-11-26T14:15:13.137Z,81.35
2018-11-26T14:17:39.462Z,81.36
2018-11-26T14:20:05.777Z,81.31
2018-11-26T14:22:32.089Z,81.23
2018-11-26T14:24:58.390Z,81.27
2018-11-26T14:27:24.716Z,81.46
2018-11-26T14:29:51.134Z,81.39
2018-11-26T14:32:17.487Z,81.45
2018-11-26T14:34:43.799Z,81.51
2018-11-26T14:37:10.121Z,81.49
2018-11-26T14:39:36.461Z,81.71
2018-11-26T14:42:02.765Z,81.76
2018-11-26T14:44:29.073Z,81.91
2018-11-26T14:46:55.346Z,82.06
2018-11-26T14:49:21.658Z,82.01
2018-11-26T14:51:47.978Z,82.04
2018-11-26T14:54:14.314Z,82.17
2018-11-26T14:56:40.640Z,82.20
2018-11-26T14:59:06.957Z,82.69
2018-11-26T15:01:33.287Z,82.81
2018-11-26T15:03:59.589Z,83.12
2018-11-26T15:06:25.932Z,83.32
2018-11-26T15:08:52.263Z,83.59
2018-11-26T15:11:18.602Z,83.86
2018-11-26T15:13:44.915Z,83.02
2018-11-26T15:16:11.237Z,82.67
2018-11-26T15:18:37.543Z,82.83
2018-11-26T15:21:04.005Z,83.03
2018-11-26T15:23:30.216Z,83.39
2018-11-26T15:25:56.533Z,83.67
2018-11-26T15:28:22.867Z,83.91
2018-11-26T15:30:49.159Z,83.91
2018-11-26T15:33:15.490Z,84.33
2018-11-26T15:35:41.830Z,84.76
2018-11-26T15:53:16.526Z,84.94
2018-11-26T15:55:42.835Z,84.96
2018-11-26T15:58:09.175Z,84.43
2018-11-26T16:00:35.511Z,84.36
2018-11-26T16:03:01.843Z,83.81
2018-11-26T16:05:28.154Z,83.51
2018-11-26T16:07:54.445Z,83.19
2018-11-26T16:10:20.748Z,83.02
2018-11-26T16:12:47.084Z,82.34
2018-11-26T16:15:13.422Z,81.92
2018-11-26T16:17:39.707Z,82.21
2018-11-26T16:20:06.076Z,82.06
2018-11-26T16:22:32.364Z,82.26
2018-11-26T16:24:58.743Z,82.97
2018-11-26T16:27:25.078Z,82.85
2018-11-26T16:29:51.467Z,82.53
2018-11-26T16:32:17.783Z,82.66
2018-11-26T16:34:44.080Z,82.80
2018-11-26T16:37:10.382Z,83.06
2018-11-26T16:39:36.691Z,83.51
2018-11-26T16:42:03.025Z,83.62
2018-11-26T16:44:29.336Z,83.27
2018-11-26T16:46:55.664Z,82.59
2018-11-26T16:49:21.954Z,82.41
2018-11-26T16:51:48.263Z,81.27
2018-11-26T16:54:14.590Z,81.70
2018-11-26T16:56:40.897Z,81.57
2018-11-26T16:59:07.253Z,82.23
2018-11-26T17:01:33.542Z,82.39
2018-11-26T17:03:59.844Z,82.34
2018-11-26T17:06:26.209Z,82.58
2018-11-26T17:08:52.564Z,82.74
2018-11-26T17:11:18.879Z,83.36
2018-11-26T17:13:45.173Z,84.05
2018-11-26T17:16:11.494Z,84.09
2018-11-26T17:18:37.789Z,84.20
2018-11-26T17:21:04.125Z,84.63
2018-11-26T17:23:30.439Z,84.94
2018-11-26T17:25:56.731Z,85.20
2018-11-26T17:28:23.057Z,85.26
2018-11-26T17:30:49.387Z,85.47
2018-11-26T17:33:15.692Z,85.71
2018-11-26T17:35:41.990Z,85.96
2018-11-26T17:38:08.322Z,86.21
2018-11-26T17:40:34.644Z,86.06
2018-11-26T17:43:00.938Z,86.02
2018-11-26T17:45:27.245Z,86.12
2018-11-26T17:47:53.598Z,86.23
2018-11-26T17:50:19.932Z,86.74
2018-11-26T17:52:46.290Z,86.85
2018-11-26T17:55:12.601Z,86.86
2018-11-26T17:57:38.959Z,87.03
2018-11-26T18:00:05.283Z,87.58
2018-11-26T18:02:31.604Z,87.28
2018-11-26T18:04:57.971Z,86.71
2018-11-26T18:07:24.271Z,86.07
2018-11-26T18:09:50.609Z,85.79
2018-11-26T18:12:16.944Z,86.04
2018-11-26T18:14:43.233Z,85.98
2018-11-26T18:17:09.600Z,86.02
2018-11-26T18:19:35.896Z,86.37
2018-11-26T18:22:03.456Z,86.29
2018-11-26T18:24:28.585Z,86.63
2018-11-26T18:26:54.929Z,86.78
2018-11-26T18:29:21.248Z,86.80
2018-11-26T18:31:47.570Z,86.86
2018-11-26T18:34:13.915Z,86.70
2018-11-26T18:36:40.218Z,87.17
2018-11-26T18:39:06.542Z,86.90
2018-11-26T18:41:32.860Z,86.80
2018-11-26T18:43:59.167Z,87.13
2018-11-26T18:46:25.491Z,87.36
2018-11-26T18:48:51.812Z,87.44
2018-11-26T18:51:18.119Z,87.31
2018-11-26T18:53:44.446Z,87.18
2018-11-26T18:56:10.749Z,87.33
2018-11-26T18:58:37.065Z,87.43
2018-11-26T19:01:03.387Z,87.52
2018-11-26T19:03:29.726Z,87.64
2018-11-26T19:05:56.027Z,87.80
2018-11-26T19:08:22.340Z,88.03
2018-11-26T19:10:48.664Z,88.02
2018-11-26T19:13:14.989Z,88.23
2018-11-26T19:15:41.290Z,88.44
2018-11-26T19:18:07.598Z,88.51
2018-11-26T19:20:33.921Z,88.44
2018-11-26T19:23:00.349Z,88.57
2018-11-26T19:25:26.667Z,88.71
2018-11-26T19:27:52.998Z,88.83
2018-11-26T19:30:23.081Z,89.07
2018-11-26T19:32:45.734Z,89.16
2018-11-26T19:35:12.054Z,89.16
2018-11-26T19:37:38.389Z,88.90
2018-11-26T19:40:04.679Z,89.16
2018-11-26T19:42:31.099Z,89.38
2018-11-26T19:44:57.384Z,89.80
2018-11-26T19:47:23.709Z,90.22
2018-11-26T19:49:50.026Z,90.41
2018-11-26T19:52:16.388Z,90.56
2018-11-26T19:54:42.676Z,90.51
2018-11-26T19:57:09.032Z,90.50
2018-11-26T19:59:36.591Z,90.93
2018-11-26T20:02:01.686Z,91.41
2018-11-26T20:04:28.003Z,91.36
2018-11-26T20:06:54.304Z,91.50
2018-11-26T20:09:21.149Z,91.40
2018-11-26T20:11:47.476Z,90.79
2018-11-26T20:14:21.319Z,90.64
2018-11-26T20:16:40.073Z,90.62
2018-11-26T20:19:06.368Z,90.75
2018-11-26T20:21:32.675Z,90.58
2018-11-26T20:23:58.999Z,90.55
2018-11-26T20:26:25.295Z,90.83
2018-11-26T20:28:56.810Z,90.54
2018-11-26T20:31:17.907Z,90.58
2018-11-26T20:33:44.202Z,90.82
2018-11-26T20:36:10.502Z,90.43
2018-11-26T20:38:36.808Z,89.82
2018-11-26T20:41:03.123Z,89.57
2018-11-26T20:43:29.478Z,89.72
2018-11-26T20:45:55.831Z,90.06
2018-11-26T20:48:22.104Z,90.29
2018-11-26T20:50:48.407Z,90.64
2018-11-26T20:53:14.737Z,90.51
2018-11-26T20:55:41.087Z,90.02
2018-11-26T20:58:07.382Z,89.91
2018-11-26T21:00:33.719Z,89.90
2018-11-26T21:03:00.003Z,90.12
2018-11-26T21:05:26.331Z,90.01
2018-11-26T21:07:52.657Z,89.45
2018-11-26T21:10:18.951Z,88.97
2018-11-26T21:12:45.255Z,88.91
2018-11-26T21:15:11.582Z,88.98
2018-11-26T21:17:37.944Z,89.07
2018-11-26T21:20:04.261Z,89.04
2018-11-26T21:22:30.640Z,89.29
2018-11-26T21:24:56.953Z,89.67
2018-11-26T21:27:23.292Z,90.07
2018-11-26T21:29:50.615Z,90.29
2018-11-26T21:32:16.026Z,90.62
2018-11-26T21:34:42.353Z,90.87
2018-11-26T21:37:08.656Z,91.12
2018-11-26T21:39:35.018Z,91.65
2018-11-26T21:42:01.336Z,91.68
2018-11-26T21:44:27.667Z,91.77
2018-11-26T21:46:54.069Z,91.82
2018-11-26T21:49:20.438Z,91.91
2018-11-26T21:51:46.744Z,91.98
2018-11-26T21:54:13.039Z,92.40
2018-11-26T21:56:39.360Z,92.84
2018-11-26T21:59:05.695Z,92.68
2018-11-26T22:01:32.065Z,92.86
2018-11-26T22:03:58.383Z,93.02
2018-11-26T22:06:24.705Z,93.08
2018-11-26T22:08:51.038Z,93.33
2018-11-26T22:11:17.332Z,93.99
2018-11-26T22:13:43.668Z,93.86
2018-11-26T22:16:10.278Z,93.77
2018-11-26T22:18:36.284Z,93.82
2018-11-26T22:21:02.606Z,93.80
2018-11-26T22:23:28.906Z,93.87
2018-11-26T22:25:55.218Z,94.58
2018-11-26T22:28:21.531Z,95.14
2018-11-26T22:30:47.911Z,95.59
2018-11-26T22:33:14.250Z,96.07
2018-11-26T22:35:40.567Z,96.40
2018-11-26T22:38:06.901Z,96.69
2018-11-26T22:40:33.210Z,96.72
2018-11-26T22:42:59.538Z,96.84
2018-11-26T22:45:25.863Z,97.05
2018-11-26T22:47:52.254Z,97.36
2018-11-26T22:50:18.568Z,97.56
2018-11-26T22:52:44.947Z,97.77
2018-11-26T22:55:11.256Z,97.96
2018-11-26T22:57:37.582Z,97.99
2018-11-26T23:00:07.032Z,98.11
2018-11-26T23:02:33.373Z,97.63
2018-11-26T23:04:59.677Z,95.81
2018-11-26T23:07:25.971Z,92.85
2018-11-26T23:09:52.375Z,91.15
2018-11-26T23:12:18.661Z,90.86
2018-11-26T23:14:44.993Z,90.85
2018-11-26T23:17:11.296Z,91.39
2018-11-26T23:19:37.655Z,93.92
2018-11-26T23:22:03.968Z,95.16
2018-11-26T23:24:30.266Z,97.40
2018-11-26T23:26:56.586Z,99.46
2018-11-26T23:29:22.884Z,100.00
2018-11-26T23:31:49.238Z,100.00
2018-11-26T23:34:15.571Z,100.00
2018-11-26T23:36:41.867Z,100.00
2018-11-26T23:39:08.197Z,100.00
2018-11-26T23:41:34.540Z,100.00
2018-11-26T23:44:00.867Z,100.00
2018-11-26T23:46:27.216Z,100.00
2018-11-26T23:48:53.540Z,100.00
2018-11-26T23:51:19.862Z,100.00
2018-11-26T23:53:46.155Z,100.00
2018-11-26T23:56:12.490Z,100.00
2018-11-26T23:58:38.824Z,100.00
